createdAt,value
2019-05-18T00:01:50.433Z,13.50
2019-05-18T00:04:20.868Z,13.40
2019-05-18T00:06:51.378Z,13.40
2019-05-18T00:09:22.439Z,13.40
2019-05-18T00:11:53.148Z,13.30
2019-05-18T00:14:23.544Z,13.30
2019-05-18T00:16:54.006Z,13.30
2019-05-18T00:19:24.545Z,13.30
2019-05-18T00:21:55.159Z,13.20
2019-05-18T00:24:25.600Z,13.20
2019-05-18T00:26:56.014Z,13.20
2019-05-18T00:29:26.480Z,13.20
2019-05-18T00:31:56.967Z,13.10
2019-05-18T00:34:27.434Z,13.10
2019-05-18T00:36:57.851Z,13.10
2019-05-18T00:39:28.472Z,13.00
2019-05-18T00:41:58.957Z,13.00
2019-05-18T00:44:29.495Z,13.00
2019-05-18T00:46:59.961Z,12.90
2019-05-18T00:49:30.455Z,12.90
2019-05-18T00:52:00.979Z,12.90
2019-05-18T00:54:31.435Z,12.90
2019-05-18T00:57:02.136Z,12.80
2019-05-18T00:59:33.025Z,12.80
2019-05-18T01:02:03.500Z,12.70
2019-05-18T01:04:33.989Z,12.70
2019-05-18T01:07:04.593Z,12.70
2019-05-18T01:09:35.173Z,12.70
2019-05-18T01:12:05.837Z,12.60
2019-05-18T01:14:37.486Z,12.60
2019-05-18T01:17:08.310Z,12.60
2019-05-18T01:19:39.035Z,12.50
2019-05-18T01:22:09.541Z,12.50
2019-05-18T01:24:40.254Z,12.50
2019-05-18T01:27:10.741Z,12.50
2019-05-18T01:29:42.182Z,12.50
2019-05-18T01:32:12.693Z,12.40
2019-05-18T01:34:43.158Z,12.40
2019-05-18T01:37:13.580Z,12.30
2019-05-18T01:39:44.165Z,12.30
2019-05-18T01:42:14.666Z,12.30
2019-05-18T01:44:45.708Z,12.30
2019-05-18T01:47:16.101Z,12.30
2019-05-18T01:49:46.572Z,12.20
2019-05-18T01:52:17.153Z,12.20
2019-05-18T01:54:47.873Z,12.20
2019-05-18T01:57:18.348Z,12.20
2019-05-18T01:59:48.879Z,12.10
2019-05-18T02:02:19.511Z,12.10
2019-05-18T02:04:50.050Z,12.10
2019-05-18T02:07:21.132Z,12.10
2019-05-18T02:09:52.326Z,12.00
2019-05-18T02:12:22.861Z,12.00
2019-05-18T02:14:53.636Z,12.00
2019-05-18T02:17:24.114Z,12.00
2019-05-18T02:19:54.563Z,12.00
2019-05-18T02:22:24.985Z,11.90
2019-05-18T02:24:55.506Z,11.90
2019-05-18T02:27:26.205Z,11.90
2019-05-18T02:29:56.649Z,11.90
2019-05-18T02:32:27.455Z,11.90
2019-05-18T02:34:58.169Z,11.90
2019-05-18T02:37:28.649Z,11.90
2019-05-18T02:39:59.375Z,11.80
2019-05-18T02:42:30.937Z,11.70
2019-05-18T02:45:01.606Z,11.80
2019-05-18T02:47:32.088Z,11.80
2019-05-18T02:50:02.685Z,11.80
2019-05-18T02:52:33.560Z,11.80
2019-05-18T02:55:04.391Z,11.70
2019-05-18T02:57:34.929Z,11.70
2019-05-18T03:00:06.850Z,11.60
2019-05-18T03:02:37.292Z,11.60
2019-05-18T03:05:09.040Z,11.60
2019-05-18T03:07:40.059Z,11.60
2019-05-18T03:10:10.711Z,11.60
2019-05-18T03:12:41.244Z,11.50
2019-05-18T03:15:12.342Z,11.50
2019-05-18T03:17:42.882Z,11.50
2019-05-18T03:20:13.613Z,11.50
2019-05-18T03:22:44.160Z,11.50
2019-05-18T03:25:14.866Z,11.50
2019-05-18T03:27:45.355Z,11.50
2019-05-18T03:30:15.966Z,11.50
2019-05-18T03:32:46.496Z,11.50
2019-05-18T03:35:17.298Z,11.50
2019-05-18T03:37:47.775Z,11.50
2019-05-18T03:40:18.561Z,11.50
2019-05-18T03:42:49.088Z,11.50
2019-05-18T03:45:19.897Z,11.50
2019-05-18T03:47:50.594Z,11.50
2019-05-18T03:50:21.223Z,11.60
2019-05-18T03:52:51.740Z,11.60
2019-05-18T03:55:22.173Z,11.50
2019-05-18T03:57:52.670Z,11.60
2019-05-18T04:00:23.145Z,11.60
2019-05-18T04:02:53.614Z,11.60
2019-05-18T04:05:24.104Z,11.60
2019-05-18T04:07:54.625Z,11.60
2019-05-18T04:10:26.982Z,11.70
2019-05-18T04:12:57.490Z,11.70
2019-05-18T04:15:27.988Z,11.70
2019-05-18T04:17:58.376Z,11.70
2019-05-18T04:20:28.827Z,11.70
2019-05-18T04:23:00.431Z,11.70
2019-05-18T04:25:30.861Z,11.70
2019-05-18T04:28:01.402Z,11.80
2019-05-18T04:30:31.849Z,11.70
2019-05-18T04:33:02.402Z,11.80
2019-05-18T04:35:32.876Z,11.80
2019-05-18T04:38:04.651Z,11.80
2019-05-18T04:40:35.121Z,11.80
2019-05-18T04:43:05.645Z,11.70
2019-05-18T04:45:36.311Z,11.70
2019-05-18T04:48:06.822Z,11.80
2019-05-18T04:50:37.634Z,11.80
2019-05-18T04:53:08.137Z,11.80
2019-05-18T04:55:38.604Z,11.80
2019-05-18T04:58:09.429Z,11.90
2019-05-18T05:00:39.849Z,12.00
2019-05-18T05:03:10.565Z,12.10
2019-05-18T05:05:41.057Z,12.20
2019-05-18T05:08:11.534Z,12.20
2019-05-18T05:10:42.018Z,12.30
2019-05-18T05:13:12.466Z,12.40
2019-05-18T05:15:42.911Z,12.70
2019-05-18T05:18:13.332Z,12.80
2019-05-18T05:20:45.066Z,12.90
2019-05-18T05:23:15.538Z,13.10
2019-05-18T05:25:45.997Z,13.20
2019-05-18T05:28:16.444Z,13.50
2019-05-18T05:30:46.963Z,13.60
2019-05-18T05:33:17.379Z,13.90
2019-05-18T05:35:47.499Z,14.30
2019-05-18T05:38:17.654Z,14.80
2019-05-18T05:40:48.239Z,15.50
2019-05-18T05:43:18.348Z,15.70
2019-05-18T05:45:48.635Z,15.90
2019-05-18T05:48:19.142Z,16.20
2019-05-18T05:50:49.398Z,16.50
2019-05-18T05:53:19.588Z,17.00
2019-05-18T05:55:49.762Z,17.10
2019-05-18T05:58:19.937Z,17.30
2019-05-18T06:00:50.158Z,17.60
2019-05-18T06:03:20.748Z,17.80
2019-05-18T06:05:51.028Z,17.90
2019-05-18T06:08:21.684Z,18.20
2019-05-18T06:10:52.005Z,18.10
2019-05-18T06:13:22.242Z,18.20
2019-05-18T06:15:52.721Z,18.50
2019-05-18T06:18:23.261Z,18.90
2019-05-18T06:20:53.409Z,19.10
2019-05-18T06:23:23.617Z,18.80
2019-05-18T06:25:53.898Z,19.20
2019-05-18T06:28:24.429Z,19.50
2019-05-18T06:30:55.040Z,19.40
2019-05-18T06:33:25.499Z,19.30
2019-05-18T06:35:55.650Z,19.50
2019-05-18T06:38:25.781Z,19.40
2019-05-18T06:40:55.943Z,19.90
2019-05-18T06:43:26.296Z,20.00
2019-05-18T06:45:56.468Z,20.20
2019-05-18T06:48:26.589Z,20.50
2019-05-18T06:51:07.144Z,20.60
2019-05-18T06:53:33.223Z,20.60
2019-05-18T06:56:03.881Z,20.80
2019-05-18T06:58:35.179Z,21.10
2019-05-18T07:01:05.973Z,21.40
2019-05-18T07:03:37.839Z,21.60
2019-05-18T07:06:08.376Z,21.50
2019-05-18T07:08:38.598Z,21.70
2019-05-18T07:11:09.533Z,21.90
2019-05-18T07:13:39.979Z,22.10
2019-05-18T07:16:10.736Z,22.40
2019-05-18T07:18:40.988Z,22.60
2019-05-18T07:21:21.873Z,22.60
2019-05-18T07:23:43.939Z,22.60
2019-05-18T07:26:14.337Z,22.80
2019-05-18T07:28:44.926Z,23.00
2019-05-18T07:31:15.013Z,23.20
2019-05-18T07:33:45.146Z,23.10
2019-05-18T07:36:15.252Z,23.00
2019-05-18T07:38:45.402Z,23.40
2019-05-18T07:41:15.591Z,23.70
2019-05-18T07:43:45.738Z,24.00
2019-05-18T07:46:16.380Z,24.50
2019-05-18T07:48:46.928Z,24.60
2019-05-18T07:51:17.436Z,24.30
2019-05-18T07:53:47.985Z,24.20
2019-05-18T07:56:18.495Z,23.90
2019-05-18T07:58:48.627Z,24.10
2019-05-18T08:01:18.785Z,24.10
2019-05-18T08:03:49.493Z,24.10
2019-05-18T08:06:20.764Z,24.40
2019-05-18T08:08:50.960Z,24.30
2019-05-18T08:11:21.073Z,24.60
2019-05-18T08:13:51.642Z,24.60
2019-05-18T08:16:21.782Z,25.00
2019-05-18T08:18:52.013Z,24.90
2019-05-18T08:21:22.214Z,24.90
2019-05-18T08:23:52.779Z,25.10
2019-05-18T08:26:24.181Z,25.20
2019-05-18T08:28:54.375Z,25.70
2019-05-18T08:31:24.589Z,26.00
2019-05-18T08:33:55.143Z,26.30
2019-05-18T08:36:25.260Z,26.20
2019-05-18T08:38:57.189Z,25.60
2019-05-18T08:41:27.715Z,25.20
2019-05-18T08:43:57.894Z,24.70
2019-05-18T08:46:28.057Z,25.10
2019-05-18T08:48:58.293Z,25.50
2019-05-18T08:51:28.398Z,25.90
2019-05-18T08:53:58.520Z,26.20
2019-05-18T08:56:28.712Z,26.10
2019-05-18T08:58:59.258Z,26.10
2019-05-18T09:01:29.549Z,26.10
2019-05-18T09:03:59.808Z,26.50
2019-05-18T09:06:30.038Z,27.50
2019-05-18T09:09:00.252Z,27.80
2019-05-18T09:11:31.972Z,28.00
2019-05-18T09:14:02.160Z,28.00
2019-05-18T09:16:32.377Z,27.80
2019-05-18T09:19:02.575Z,28.00
2019-05-18T09:21:32.715Z,27.30
2019-05-18T09:24:02.906Z,26.80
2019-05-18T09:26:33.123Z,26.50
2019-05-18T09:29:03.935Z,27.00
2019-05-18T09:31:35.433Z,27.30
2019-05-18T09:34:05.667Z,27.80
2019-05-18T09:36:36.832Z,27.80
2019-05-18T09:39:08.709Z,28.10
2019-05-18T09:41:40.577Z,28.20
2019-05-18T09:44:10.797Z,28.00
2019-05-18T09:46:41.841Z,28.50
2019-05-18T09:49:14.135Z,28.10
2019-05-18T09:51:45.442Z,28.00
2019-05-18T09:54:15.544Z,28.00
2019-05-18T09:56:45.706Z,28.10
2019-05-18T09:59:15.892Z,28.60
2019-05-18T10:01:46.004Z,28.40
2019-05-18T10:04:16.214Z,28.60
2019-05-18T10:06:46.658Z,28.30
2019-05-18T10:09:17.137Z,27.80
2019-05-18T10:11:47.682Z,27.80
2019-05-18T10:14:17.841Z,28.40
2019-05-18T10:16:48.178Z,28.30
2019-05-18T10:19:18.326Z,28.50
2019-05-18T10:21:48.466Z,28.60
2019-05-18T10:24:19.254Z,29.10
2019-05-18T10:26:49.475Z,28.50
2019-05-18T10:29:19.925Z,28.90
2019-05-18T10:31:50.065Z,28.90
2019-05-18T10:34:20.313Z,28.30
2019-05-18T10:36:50.590Z,27.00
2019-05-18T10:39:20.796Z,26.60
2019-05-18T10:41:50.885Z,26.60
2019-05-18T10:44:21.009Z,26.70
2019-05-18T10:46:51.220Z,26.50
2019-05-18T10:49:21.345Z,26.30
2019-05-18T10:51:51.778Z,26.10
2019-05-18T10:54:21.902Z,25.70
2019-05-18T10:56:52.096Z,25.80
2019-05-18T10:59:22.793Z,26.70
2019-05-18T11:01:53.068Z,27.80
2019-05-18T11:04:23.304Z,27.80
2019-05-18T11:06:53.615Z,28.00
2019-05-18T11:09:23.861Z,27.50
2019-05-18T11:11:54.183Z,26.80
2019-05-18T11:14:24.549Z,27.30
2019-05-18T11:16:54.676Z,27.60
2019-05-18T11:19:24.892Z,28.30
2019-05-18T11:21:55.589Z,29.10
2019-05-18T11:24:26.222Z,30.00
2019-05-18T11:26:56.462Z,29.70
2019-05-18T11:29:26.696Z,28.40
2019-05-18T11:31:56.916Z,28.60
2019-05-18T11:34:27.218Z,29.10
2019-05-18T11:36:57.442Z,29.80
2019-05-18T11:39:27.741Z,29.40
2019-05-18T11:41:57.913Z,28.50
2019-05-18T11:44:28.133Z,27.40
2019-05-18T11:46:58.297Z,27.10
2019-05-18T11:49:29.240Z,28.00
2019-05-18T11:51:59.441Z,29.00
2019-05-18T11:54:33.276Z,29.80
2019-05-18T11:57:03.552Z,30.70
2019-05-18T11:59:33.806Z,29.90
2019-05-18T12:02:04.199Z,29.60
2019-05-18T12:04:35.102Z,30.30
2019-05-18T12:07:05.826Z,30.00
2019-05-18T12:09:36.170Z,30.50
2019-05-18T12:12:07.954Z,31.00
2019-05-18T12:14:38.153Z,31.70
2019-05-18T12:17:08.499Z,32.50
2019-05-18T12:19:38.862Z,32.90
2019-05-18T12:22:09.410Z,32.70
2019-05-18T12:24:39.706Z,33.40
2019-05-18T12:27:10.525Z,33.40
2019-05-18T12:29:40.886Z,33.50
2019-05-18T12:32:11.359Z,33.70
2019-05-18T12:34:44.821Z,33.80
2019-05-18T12:37:22.397Z,33.80
2019-05-18T12:39:53.473Z,32.70
2019-05-18T12:42:24.106Z,31.50
2019-05-18T12:44:54.987Z,30.60
2019-05-18T12:47:25.335Z,31.20
2019-05-18T12:49:55.473Z,32.00
2019-05-18T12:52:25.717Z,33.00
2019-05-18T12:54:55.987Z,33.30
2019-05-18T12:57:26.208Z,33.70
2019-05-18T12:59:56.426Z,34.10
2019-05-18T13:02:26.910Z,33.30
2019-05-18T13:04:57.164Z,34.10
2019-05-18T13:07:27.472Z,34.20
2019-05-18T13:09:57.690Z,33.10
2019-05-18T13:12:27.891Z,31.40
2019-05-18T13:14:58.287Z,30.20
2019-05-18T13:17:28.828Z,30.40
2019-05-18T13:19:59.498Z,31.70
2019-05-18T13:22:29.702Z,32.60
2019-05-18T13:25:00.147Z,31.80
2019-05-18T13:27:38.683Z,30.60
2019-05-18T13:30:02.301Z,29.80
2019-05-18T13:32:32.606Z,30.10
2019-05-18T13:35:04.431Z,31.10
2019-05-18T13:37:34.844Z,32.00
2019-05-18T13:40:06.103Z,32.20
2019-05-18T13:42:39.937Z,32.50
2019-05-18T13:45:11.527Z,32.90
2019-05-18T13:47:41.972Z,32.80
2019-05-18T13:50:12.861Z,32.70
2019-05-18T13:52:43.193Z,33.10
2019-05-18T13:55:13.575Z,32.80
2019-05-18T13:57:44.067Z,32.50
2019-05-18T14:00:15.509Z,31.50
2019-05-18T14:02:45.899Z,31.50
2019-05-18T14:05:16.724Z,31.10
2019-05-18T14:07:46.966Z,31.00
2019-05-18T14:10:17.838Z,30.60
2019-05-18T14:12:48.075Z,30.30
2019-05-18T14:15:22.339Z,30.20
2019-05-18T14:17:50.522Z,30.40
2019-05-18T14:20:20.690Z,29.70
2019-05-18T14:22:50.944Z,29.50
2019-05-18T14:25:21.204Z,29.30
2019-05-18T14:27:51.535Z,28.40
2019-05-18T14:30:22.252Z,27.70
2019-05-18T14:32:52.466Z,27.40
2019-05-18T14:35:22.718Z,27.20
2019-05-18T14:37:54.964Z,26.90
2019-05-18T14:40:26.892Z,26.80
2019-05-18T14:42:57.089Z,26.70
2019-05-18T14:45:28.079Z,26.50
2019-05-18T14:47:58.334Z,26.40
2019-05-18T14:50:28.779Z,26.40
2019-05-18T14:52:58.948Z,26.20
2019-05-18T14:55:33.645Z,26.10
2019-05-18T14:58:01.188Z,26.00
2019-05-18T15:00:31.402Z,26.00
2019-05-18T15:03:01.696Z,25.60
2019-05-18T15:05:31.925Z,25.20
2019-05-18T15:08:02.240Z,25.10
2019-05-18T15:10:32.454Z,25.10
2019-05-18T15:13:02.564Z,25.20
2019-05-18T15:15:32.858Z,25.00
2019-05-18T15:18:03.046Z,25.10
2019-05-18T15:20:33.337Z,25.20
2019-05-18T15:23:03.489Z,25.10
2019-05-18T15:25:49.338Z,24.90
2019-05-18T15:28:05.973Z,24.90
2019-05-18T15:30:36.245Z,24.90
2019-05-18T15:33:06.467Z,24.90
2019-05-18T15:35:36.595Z,24.90
2019-05-18T15:38:06.845Z,24.90
2019-05-18T15:40:37.012Z,24.70
2019-05-18T15:43:07.160Z,24.60
2019-05-18T15:45:37.414Z,24.50
2019-05-18T15:48:09.389Z,24.40
2019-05-18T15:50:39.502Z,24.50
2019-05-18T15:53:09.887Z,24.50
2019-05-18T15:55:40.537Z,24.50
2019-05-18T15:58:11.081Z,24.70
2019-05-18T16:00:42.226Z,24.80
2019-05-18T16:03:12.575Z,24.80
2019-05-18T16:05:43.153Z,24.60
2019-05-18T16:08:13.561Z,24.60
2019-05-18T16:10:43.942Z,24.50
2019-05-18T16:13:14.530Z,24.40
2019-05-18T16:15:44.756Z,24.50
2019-05-18T16:18:15.039Z,24.50
2019-05-18T16:20:45.405Z,24.50
2019-05-18T16:23:15.557Z,24.60
2019-05-18T16:25:45.885Z,24.50
2019-05-18T16:28:16.094Z,24.40
2019-05-18T16:30:46.294Z,24.40
2019-05-18T16:33:16.550Z,24.30
2019-05-18T16:35:46.716Z,24.30
2019-05-18T16:38:18.705Z,24.20
2019-05-18T16:40:50.216Z,24.20
2019-05-18T16:43:20.376Z,24.20
2019-05-18T16:45:50.504Z,24.10
2019-05-18T16:48:20.930Z,24.10
2019-05-18T16:50:51.449Z,24.10
2019-05-18T16:53:21.958Z,24.00
2019-05-18T16:55:53.914Z,24.00
2019-05-18T16:58:24.177Z,24.00
2019-05-18T17:00:54.640Z,23.90
2019-05-18T17:03:38.432Z,23.80
2019-05-18T17:06:16.399Z,23.80
2019-05-18T17:09:08.407Z,23.80
2019-05-18T17:12:08.461Z,23.70
2019-05-18T17:14:49.784Z,23.70
2019-05-18T17:17:35.239Z,23.70
2019-05-18T17:20:09.288Z,23.70
2019-05-18T17:22:48.381Z,23.50
2019-05-18T17:25:29.806Z,23.50
2019-05-18T17:28:07.390Z,23.50
2019-05-18T17:31:01.747Z,23.50
2019-05-18T17:33:52.478Z,23.50
2019-05-18T17:36:22.710Z,23.50
2019-05-18T17:38:52.848Z,23.50
2019-05-18T17:41:23.328Z,23.40
2019-05-18T17:43:53.638Z,23.30
2019-05-18T17:46:23.782Z,23.30
2019-05-18T17:48:53.981Z,23.30
2019-05-18T17:51:24.104Z,23.30
2019-05-18T17:53:54.267Z,23.20
2019-05-18T17:56:24.378Z,23.10
2019-05-18T17:58:54.493Z,23.10
2019-05-18T18:01:24.888Z,23.00
2019-05-18T18:03:55.144Z,23.00
2019-05-18T18:06:25.281Z,23.00
2019-05-18T18:08:55.529Z,22.90
2019-05-18T18:11:25.949Z,22.80
2019-05-18T18:13:56.081Z,22.80
2019-05-18T18:16:26.569Z,22.80
2019-05-18T18:18:57.536Z,22.70
2019-05-18T18:21:27.764Z,22.60
2019-05-18T18:23:57.961Z,22.60
2019-05-18T18:26:28.103Z,22.50
2019-05-18T18:28:58.247Z,22.40
2019-05-18T18:31:29.944Z,22.30
2019-05-18T18:34:00.186Z,22.20
2019-05-18T18:36:30.345Z,22.00
2019-05-18T18:39:00.573Z,22.00
2019-05-18T18:41:30.981Z,21.80
2019-05-18T18:44:01.169Z,21.80
2019-05-18T18:46:31.608Z,21.70
2019-05-18T18:49:01.795Z,21.60
2019-05-18T18:51:32.019Z,21.70
2019-05-18T18:54:02.358Z,21.60
2019-05-18T18:56:32.584Z,21.50
2019-05-18T18:59:04.953Z,21.40
2019-05-18T19:01:36.674Z,21.30
2019-05-18T19:04:07.037Z,21.10
2019-05-18T19:06:38.120Z,21.00
2019-05-18T19:09:08.674Z,20.80
2019-05-18T19:11:39.076Z,20.70
2019-05-18T19:14:09.396Z,20.60
2019-05-18T19:16:39.722Z,20.50
2019-05-18T19:19:10.510Z,20.40
2019-05-18T19:21:40.677Z,20.30
2019-05-18T19:24:10.898Z,20.10
2019-05-18T19:26:41.162Z,19.90
2019-05-18T19:29:11.405Z,19.80
2019-05-18T19:31:41.656Z,19.70
2019-05-18T19:34:11.915Z,19.70
2019-05-18T19:36:42.082Z,19.60
2019-05-18T19:39:12.401Z,19.50
2019-05-18T19:41:42.789Z,19.40
2019-05-18T19:44:13.096Z,19.30
2019-05-18T19:46:44.720Z,19.30
2019-05-18T19:49:15.391Z,19.30
2019-05-18T19:51:45.599Z,19.30
2019-05-18T19:54:15.886Z,19.20
2019-05-18T19:56:46.455Z,19.10
2019-05-18T19:59:17.082Z,19.10
2019-05-18T20:01:47.555Z,19.00
2019-05-18T20:04:17.877Z,19.00
2019-05-18T20:06:48.418Z,18.90
2019-05-18T20:09:19.020Z,18.90
2019-05-18T20:11:49.244Z,18.80
2019-05-18T20:14:19.949Z,18.90
2019-05-18T20:16:50.285Z,18.80
2019-05-18T20:19:20.577Z,18.80
2019-05-18T20:21:50.751Z,18.80
2019-05-18T20:24:21.361Z,18.70
2019-05-18T20:26:51.555Z,18.70
2019-05-18T20:29:21.823Z,18.80
2019-05-18T20:31:52.046Z,18.70
2019-05-18T20:34:22.307Z,18.60
2019-05-18T20:36:52.912Z,18.60
2019-05-18T20:39:23.533Z,18.50
2019-05-18T20:41:53.814Z,18.50
2019-05-18T20:44:24.003Z,18.40
2019-05-18T20:46:54.185Z,18.30
2019-05-18T20:49:24.676Z,18.20
2019-05-18T20:51:54.946Z,18.20
2019-05-18T20:54:25.497Z,18.10
2019-05-18T20:56:56.218Z,18.00
2019-05-18T20:59:26.516Z,17.90
2019-05-18T21:01:56.889Z,17.90
2019-05-18T21:04:27.069Z,18.00
2019-05-18T21:06:57.268Z,17.80
2019-05-18T21:09:27.870Z,17.70
2019-05-18T21:11:58.745Z,17.60
2019-05-18T21:14:30.314Z,17.60
2019-05-18T21:17:01.156Z,17.60
2019-05-18T21:19:32.058Z,17.60
2019-05-18T21:22:02.648Z,17.50
2019-05-18T21:24:33.624Z,17.40
2019-05-18T21:27:05.690Z,17.50
2019-05-18T21:29:36.699Z,17.40
2019-05-18T21:32:07.836Z,17.40
2019-05-18T21:34:38.057Z,17.30
2019-05-18T21:37:08.272Z,17.30
2019-05-18T21:39:38.949Z,17.30
2019-05-18T21:42:09.171Z,17.20
2019-05-18T21:44:39.473Z,17.10
2019-05-18T21:47:09.610Z,17.00
2019-05-18T21:49:39.864Z,17.00
2019-05-18T21:52:10.011Z,16.90
2019-05-18T21:54:40.208Z,16.80
2019-05-18T21:57:10.400Z,16.80
2019-05-18T21:59:40.938Z,16.80
2019-05-18T22:02:11.366Z,16.80
2019-05-18T22:04:41.986Z,16.80
2019-05-18T22:07:12.190Z,16.70
2019-05-18T22:09:42.407Z,16.60
2019-05-18T22:12:12.814Z,16.60
2019-05-18T22:14:43.072Z,16.60
2019-05-18T22:17:13.263Z,16.60
2019-05-18T22:19:43.567Z,16.50
2019-05-18T22:22:13.754Z,16.50
2019-05-18T22:24:44.037Z,16.50
2019-05-18T22:27:15.593Z,16.50
2019-05-18T22:29:45.831Z,16.40
2019-05-18T22:32:16.079Z,16.40
2019-05-18T22:34:46.345Z,16.40
2019-05-18T22:37:16.533Z,16.40
2019-05-18T22:39:46.709Z,16.40
2019-05-18T22:42:18.043Z,16.40
2019-05-18T22:44:48.290Z,16.40
2019-05-18T22:47:19.478Z,16.40
2019-05-18T22:49:50.644Z,16.40
2019-05-18T22:52:21.005Z,16.30
2019-05-18T22:54:51.651Z,16.40
2019-05-18T22:57:21.836Z,16.40
2019-05-18T22:59:52.027Z,16.30
2019-05-18T23:02:22.264Z,16.40
2019-05-18T23:04:52.837Z,16.30
2019-05-18T23:07:23.403Z,16.20
2019-05-18T23:09:53.898Z,16.20
2019-05-18T23:12:24.093Z,16.20
2019-05-18T23:14:54.363Z,16.20
2019-05-18T23:17:24.556Z,16.10
2019-05-18T23:19:54.733Z,16.10
2019-05-18T23:22:25.324Z,16.00
2019-05-18T23:24:55.470Z,16.00
2019-05-18T23:27:26.066Z,16.00
2019-05-18T23:29:56.313Z,16.00
2019-05-18T23:32:26.576Z,15.90
2019-05-18T23:34:57.222Z,15.90
2019-05-18T23:37:27.840Z,15.90
2019-05-18T23:39:58.041Z,15.80
2019-05-18T23:42:28.475Z,15.80
2019-05-18T23:44:58.746Z,15.70
2019-05-18T23:47:29.480Z,15.60
2019-05-18T23:49:59.780Z,15.60
2019-05-18T23:52:30.113Z,15.60
2019-05-18T23:55:00.364Z,15.50
2019-05-18T23:57:30.557Z,15.50
